createdAt,value
2022-12-04T00:07:14.108Z,2.49
2022-12-04T00:17:14.118Z,2.53
2022-12-04T00:27:14.096Z,2.52
2022-12-04T00:37:14.189Z,2.53
2022-12-04T00:47:14.090Z,2.47
2022-12-04T00:57:14.140Z,2.45
2022-12-04T01:07:14.132Z,2.42
2022-12-04T01:17:14.148Z,2.41
2022-12-04T01:27:14.112Z,2.34
2022-12-04T01:37:14.120Z,2.29
2022-12-04T01:47:14.143Z,2.3
2022-12-04T01:57:14.160Z,2.31
2022-12-04T02:07:14.130Z,2.32
2022-12-04T02:17:14.151Z,2.31
2022-12-04T02:27:14.136Z,2.3
2022-12-04T02:37:14.213Z,2.27
2022-12-04T02:47:14.139Z,2.3
2022-12-04T02:57:14.173Z,2.32
2022-12-04T03:07:14.182Z,2.3
2022-12-04T03:17:14.296Z,2.31
2022-12-04T03:27:14.192Z,2.3
2022-12-04T03:37:14.312Z,2.28
2022-12-04T03:47:14.155Z,2.29
2022-12-04T03:57:14.182Z,2.25
2022-12-04T04:07:14.164Z,2.22
2022-12-04T04:17:14.177Z,2.17
2022-12-04T04:27:14.170Z,2.11
2022-12-04T04:37:14.190Z,2.01
2022-12-04T04:47:14.158Z,1.93
2022-12-04T04:57:14.218Z,1.84
2022-12-04T05:07:14.175Z,1.81
2022-12-04T05:17:14.212Z,1.75
2022-12-04T05:27:14.200Z,1.73
2022-12-04T05:37:14.252Z,1.73
2022-12-04T05:47:14.200Z,1.69
2022-12-04T05:57:14.231Z,1.7
2022-12-04T06:07:14.207Z,1.69
2022-12-04T06:17:14.311Z,1.62
2022-12-04T06:27:29.671Z,1.6
2022-12-04T06:37:14.222Z,1.65
2022-12-04T06:47:14.191Z,1.61
2022-12-04T06:57:14.243Z,1.66
2022-12-04T07:07:14.219Z,1.73
2022-12-04T07:17:14.297Z,1.74
2022-12-04T07:27:14.220Z,1.83
2022-12-04T07:37:14.274Z,1.94
2022-12-04T07:47:14.251Z,2.07
2022-12-04T07:57:14.281Z,2.1
2022-12-04T08:07:14.255Z,2.18
2022-12-04T08:17:14.357Z,2.19
2022-12-04T08:27:14.251Z,2.24
2022-12-04T08:37:14.311Z,2.27
2022-12-04T08:47:14.270Z,2.33
2022-12-04T08:57:14.315Z,2.38
2022-12-04T09:07:14.256Z,2.45
2022-12-04T09:17:14.318Z,2.48
2022-12-04T09:27:15.027Z,2.53
2022-12-04T09:37:14.298Z,2.57
2022-12-04T09:47:14.286Z,2.66
2022-12-04T09:57:14.299Z,2.66
2022-12-04T10:07:14.273Z,2.7
2022-12-04T10:17:14.326Z,2.71
2022-12-04T10:27:14.292Z,2.69
2022-12-04T10:37:14.308Z,2.53
2022-12-04T10:47:14.411Z,2.16
2022-12-04T10:57:14.326Z,2.14
2022-12-04T11:07:14.344Z,1.96
2022-12-04T11:17:14.312Z,1.86
2022-12-04T11:27:14.276Z,1.91
2022-12-04T11:37:14.330Z,2.05
2022-12-04T11:47:14.355Z,2.27
2022-12-04T11:57:14.342Z,2.38
2022-12-04T12:07:14.335Z,2.6
2022-12-04T12:17:14.409Z,2.78
2022-12-04T12:27:14.320Z,2.8
2022-12-04T12:37:14.357Z,2.88
2022-12-04T12:47:14.322Z,2.9
2022-12-04T12:57:14.384Z,2.92
2022-12-04T13:07:14.320Z,2.99
2022-12-04T13:17:14.403Z,3
2022-12-04T13:27:14.330Z,3.1
2022-12-04T13:37:14.383Z,3.26
2022-12-04T13:47:14.414Z,3.16
2022-12-04T13:57:14.385Z,3.11
2022-12-04T14:07:14.337Z,3.15
2022-12-04T14:17:14.401Z,2.98
2022-12-04T14:27:14.346Z,2.98
2022-12-04T14:37:14.374Z,2.91
2022-12-04T14:47:15.235Z,2.81
2022-12-04T14:57:14.410Z,2.73
2022-12-04T15:07:14.386Z,2.66
2022-12-04T15:17:14.480Z,2.65
2022-12-04T15:27:14.380Z,2.64
2022-12-04T15:37:14.411Z,2.64
2022-12-04T15:47:14.368Z,2.59
2022-12-04T15:57:14.439Z,2.58
2022-12-04T16:07:14.396Z,2.57
2022-12-04T16:17:14.416Z,2.6
2022-12-04T16:27:14.375Z,2.56
2022-12-04T16:37:14.409Z,2.54
2022-12-04T16:47:14.384Z,2.56
2022-12-04T16:57:14.447Z,2.56
2022-12-04T17:07:14.401Z,2.58
2022-12-04T17:17:14.440Z,2.54
2022-12-04T17:27:14.411Z,2.51
2022-12-04T17:37:14.427Z,2.45
2022-12-04T17:47:14.475Z,2.39
2022-12-04T17:57:14.471Z,2.36
2022-12-04T18:07:14.425Z,2.33
2022-12-04T18:17:14.439Z,2.31
2022-12-04T18:27:14.416Z,2.28
2022-12-04T18:37:14.461Z,2.24
2022-12-04T18:47:14.436Z,2.23
2022-12-04T18:57:14.453Z,2.22
2022-12-04T19:07:14.445Z,2.16
2022-12-04T19:17:14.491Z,2.12
2022-12-04T19:27:14.451Z,2.06
2022-12-04T19:37:14.495Z,2.06
2022-12-04T19:47:14.449Z,2.07
2022-12-04T19:57:14.478Z,2.04
2022-12-04T20:07:14.468Z,2
2022-12-04T20:17:14.605Z,1.98
2022-12-04T20:27:14.456Z,1.87
2022-12-04T20:37:14.515Z,1.82
2022-12-04T20:47:14.469Z,1.75
2022-12-04T20:57:14.509Z,1.72
2022-12-04T21:07:14.501Z,1.73
2022-12-04T21:17:14.500Z,1.76
2022-12-04T21:27:17.338Z,1.72
2022-12-04T21:37:14.529Z,1.71
2022-12-04T21:47:14.468Z,1.74
2022-12-04T21:57:14.537Z,1.77
2022-12-04T22:07:14.533Z,1.83
2022-12-04T22:17:14.528Z,1.89
2022-12-04T22:27:14.514Z,1.92
2022-12-04T22:37:14.551Z,2
2022-12-04T22:47:14.505Z,1.94
2022-12-04T22:57:14.567Z,1.88
2022-12-04T23:07:14.543Z,1.89
2022-12-04T23:17:14.546Z,1.87
2022-12-04T23:27:14.529Z,1.93
2022-12-04T23:37:14.566Z,1.94
2022-12-04T23:47:14.643Z,1.93
2022-12-04T23:57:14.586Z,1.91
